Stateline, California
Current Conditions -  °F | °C
As of 5:16 PM on Saturday 25 Oct 2014 (Local Time) from KTVL Reporting Station
Overcast Overcast  
Wind Chill: 34°   Ceiling: 2300
Heat Index: 40°   Visibility: 10mi
Dew Point: 35°   Wind: 9mph
Humidity: 83%   Direction: 180°S
Pressure: 30.13"   Gusts: NA
Location:  38.9418°N, 119.977°W
Report Text: KTVL 260016Z AUTO 18008KT 10SM SCT012 BKN023 OVC029 04/02 A3013 RMK AO2 RAE16 P0000 T00440017
Loading
Personal Weather Stations






























Interactive Weather Map
Tropical Storm Tracking
New forecast layout! Learn more

10-Day Weather Forecast

Advertisements
Track Severe Weather on mobile